Time;durP1;ratioP1;P1;durP2;ratioP2;P2;SDS_P1;SDS_P2;PMS_P1;PMS_P2;Temp;Humidity;BMP_temperature;BMP_pressure;BME280_temperature;BME280_humidity;BME280_pressure;Samples;Min_cycle;Max_cycle;Signal;HPM_P1;HPM_P2
2021/11/29 00:02:16;;;;;;;33.17;22.13;;;;;;;7.97;99.56;98641.27;1715177;83;21104;-65
2021/11/29 00:04:44;;;;;;;35.63;25.07;;;;;;;8.02;99.41;98636.63;1711238;83;21069;-65
2021/11/29 00:07:13;;;;;;;31.50;22.73;;;;;;;8.02;99.30;98641.94;1699875;83;21085;-64
2021/11/29 00:09:39;;;;;;;32.33;23.00;;;;;;;8.03;99.20;98638.79;1697923;83;21056;-66
2021/11/29 00:12:08;;;;;;;34.00;23.20;;;;;;;8.03;99.28;98625.00;1688437;83;21007;-65
2021/11/29 00:14:34;;;;;;;30.97;21.00;;;;;;;8.06;99.36;98624.59;1657766;84;21090;-66
2021/11/29 00:17:03;;;;;;;31.33;22.60;;;;;;;8.04;99.45;98623.16;1662989;84;21014;-66
2021/11/29 00:19:29;;;;;;;32.57;23.07;;;;;;;8.03;99.70;98625.52;1670629;84;21032;-65
2021/11/29 00:21:58;;;;;;;31.87;20.43;;;;;;;8.02;99.71;98626.02;1664752;84;21562;-64
2021/11/29 00:24:24;;;;;;;;;;;;;;;7.99;100.00;98608.70;1666651;83;22167;-67
2021/11/29 00:26:53;;;;;;;34.50;22.33;;;;;;;8.07;99.87;98608.14;1686207;83;20159;-71
2021/11/29 00:29:19;;;;;;;;;;;;;;;8.04;100.00;98608.04;1691861;83;21064;-65
2021/11/29 00:31:45;;;;;;;30.87;23.03;;;;;;;8.06;100.00;98595.89;1664696;84;20187;-68
2021/11/29 00:34:12;;;;;;;;;;;;;;;8.06;100.00;98598.55;1689465;83;21011;-65
2021/11/29 00:36:38;;;;;;;30.40;22.17;;;;;;;8.07;100.00;98596.20;1681335;83;20223;-67
2021/11/29 00:39:05;;;;;;;32.73;22.03;;;;;;;8.01;100.00;98583.28;1678035;83;21584;-66
2021/11/29 00:41:32;;;;;;;33.30;23.30;;;;;;;8.05;100.00;98591.11;1672069;84;21033;-71
2021/11/29 00:43:58;;;;;;;35.55;24.75;;;;;;;8.08;100.00;98585.88;1680546;84;21012;-66
2021/11/29 00:46:26;;;;;;;30.73;22.83;;;;;;;8.12;100.00;98584.44;1698051;83;20945;-65
2021/11/29 00:48:53;;;;;;;33.70;21.90;;;;;;;8.17;100.00;98560.70;1678319;84;21049;-65
2021/11/29 00:51:19;;;;;;;36.53;23.80;;;;;;;8.19;100.00;98562.62;1701447;83;21304;-65
2021/11/29 00:53:47;;;;;;;29.77;20.10;;;;;;;8.16;100.00;98561.22;1701357;83;21054;-66
2021/11/29 00:56:15;;;;;;;32.27;23.13;;;;;;;8.20;100.00;98549.66;1704254;83;20980;-65
2021/11/29 00:58:42;;;;;;;34.60;23.13;;;;;;;8.20;100.00;98544.35;1676078;84;21461;-66
2021/11/29 01:01:08;;;;;;;;;;;;;;;8.26;100.00;98539.49;1690090;83;21625;-66
2021/11/29 01:03:38;;;;;;;35.63;23.27;;;;;;;8.23;100.00;98531.16;1700988;83;20244;-69
2021/11/29 01:06:03;;;;;;;30.83;21.37;;;;;;;8.22;100.00;98530.87;1684584;83;21050;-66
2021/11/29 01:08:31;;;;;;;28.40;20.10;;;;;;;8.21;100.00;98528.70;1698650;83;21082;-65
2021/11/29 01:10:58;;;;;;;30.93;20.20;;;;;;;8.25;100.00;98525.11;1709768;83;21046;-66
2021/11/29 01:13:25;;;;;;;28.10;20.37;;;;;;;8.26;100.00;98538.16;1682145;84;21037;-65
2021/11/29 01:15:54;;;;;;;27.17;18.83;;;;;;;8.33;100.00;98526.98;1686814;84;21138;-67
2021/11/29 01:18:20;;;;;;;25.23;19.13;;;;;;;8.36;100.00;98527.89;1696625;83;21043;-69
2021/11/29 01:20:49;;;;;;;22.10;17.47;;;;;;;8.39;100.00;98530.08;1672639;84;21530;-65
2021/11/29 01:23:18;;;;;;;25.27;17.23;;;;;;;8.42;100.00;98524.06;1697902;83;21494;-66
2021/11/29 01:25:44;;;;;;;20.53;15.90;;;;;;;8.47;100.00;98522.38;1694841;83;21022;-68
2021/11/29 01:28:11;;;;;;;23.15;17.07;;;;;;;8.49;100.00;98511.02;1697531;83;21554;-67
2021/11/29 01:30:39;;;;;;;23.77;17.87;;;;;;;8.54;100.00;98505.07;1690435;83;21026;-68
2021/11/29 01:33:07;;;;;;;21.13;15.87;;;;;;;8.57;100.00;98496.16;1689982;81;21005;-68
2021/11/29 01:35:34;;;;;;;21.87;17.33;;;;;;;8.62;100.00;98509.28;1698652;83;21097;-69
2021/11/29 01:38:01;;;;;;;22.87;17.43;;;;;;;8.68;100.00;98501.26;1682645;83;21175;-66
2021/11/29 01:40:29;;;;;;;23.20;16.40;;;;;;;8.70;99.95;98495.70;1689169;83;21059;-66
2021/11/29 01:43:06;;;;;;;23.70;16.90;;;;;;;8.72;99.67;98489.15;1673897;83;21092;-66
2021/11/29 01:45:38;;;;;;;21.50;16.07;;;;;;;8.75;99.51;98491.34;1709176;82;21050;-66
2021/11/29 01:48:07;;;;;;;21.97;17.13;;;;;;;8.81;99.57;98480.34;1723938;82;21062;-67
2021/11/29 01:50:36;;;;;;;19.27;14.53;;;;;;;8.84;99.20;98480.44;1726639;82;21117;-73
2021/11/29 01:53:06;;;;;;;19.97;15.03;;;;;;;8.83;99.12;98478.80;1714757;82;21042;-68
2021/11/29 01:55:35;;;;;;;21.13;15.43;;;;;;;8.85;98.74;98474.08;1707224;82;21006;-66
2021/11/29 01:58:03;;;;;;;21.10;16.47;;;;;;;8.85;98.75;98462.13;1699295;83;21090;-66
2021/11/29 02:00:34;;;;;;;16.83;14.13;;;;;;;8.86;98.58;98476.52;1667895;83;21540;-64
2021/11/29 02:03:01;;;;;;;16.93;13.60;;;;;;;8.87;98.57;98475.50;1699692;83;21485;-66
2021/11/29 02:05:27;;;;;;;18.67;14.60;;;;;;;8.95;98.40;98458.44;1700070;83;21124;-67
2021/11/29 02:07:57;;;;;;;19.23;14.17;;;;;;;8.97;98.13;98466.99;1690980;83;21107;-66
2021/11/29 02:10:26;;;;;;;17.30;13.10;;;;;;;8.96;97.93;98451.55;1687602;83;21476;-67
2021/11/29 02:12:53;;;;;;;17.87;12.63;;;;;;;8.95;97.78;98445.95;1694659;83;21135;-66
2021/11/29 02:15:21;;;;;;;16.77;13.27;;;;;;;8.94;97.85;98439.53;1687442;83;21012;-66
2021/11/29 02:17:48;;;;;;;15.23;12.73;;;;;;;8.96;97.81;98452.88;1697270;83;20960;-69
2021/11/29 02:20:18;;;;;;;17.90;13.83;;;;;;;9.02;97.65;98439.73;1699859;83;21028;-66
2021/11/29 02:22:46;;;;;;;19.40;12.83;;;;;;;9.00;97.70;98433.31;1698298;83;21108;-66
2021/11/29 02:25:22;;;;;;;19.30;13.43;;;;;;;9.02;97.56;98439.20;1698452;83;21059;-65
2021/11/29 02:27:50;;;;;;;16.70;13.17;;;;;;;9.05;97.39;98433.98;1699598;83;20998;-64
2021/11/29 02:30:20;;;;;;;17.40;12.67;;;;;;;9.09;97.19;98416.02;1698354;83;20972;-65
2021/11/29 02:32:47;;;;;;;15.43;13.23;;;;;;;9.13;97.08;98433.66;1687658;83;20956;-64
2021/11/29 02:35:14;;;;;;;16.53;13.40;;;;;;;9.11;96.87;98421.11;1685847;83;21035;-72
2021/11/29 02:37:41;;;;;;;18.37;12.67;;;;;;;9.13;96.70;98426.48;1708224;83;21043;-66
2021/11/29 02:40:08;;;;;;;21.37;15.70;;;;;;;9.12;96.67;98424.88;1712506;83;21146;-66
2021/11/29 02:42:37;;;;;;;18.77;14.33;;;;;;;9.13;96.75;98422.50;1702267;83;21043;-70
2021/11/29 02:45:06;;;;;;;20.53;16.37;;;;;;;8.77;96.47;98363.09;1707108;82;20993;-66
2021/11/29 02:47:32;;;;;;;27.37;17.77;;;;;;;9.19;96.45;98415.47;1695998;83;21029;-66
2021/11/29 02:49:59;;;;;;;;;;;;;;;9.23;96.15;98410.51;1682291;84;21109;-65
2021/11/29 02:52:26;;;;;;;26.37;16.00;;;;;;;9.26;96.03;98403.42;1692824;84;20180;-67
2021/11/29 02:54:52;;;;;;;23.93;16.03;;;;;;;9.21;95.98;98397.97;1700283;83;20986;-65
2021/11/29 02:57:22;;;;;;;25.60;15.58;;;;;;;9.20;95.73;98393.70;1724889;82;21002;-66
2021/11/29 02:59:50;;;;;;;36.73;17.93;;;;;;;9.15;95.78;98393.04;1700154;82;21139;-67
2021/11/29 03:02:19;;;;;;;20.07;14.13;;;;;;;9.08;96.11;98387.00;1699755;82;21451;-67
2021/11/29 03:04:46;;;;;;;24.00;13.87;;;;;;;9.06;96.16;98383.77;1726313;81;21082;-66
2021/11/29 03:07:14;;;;;;;20.47;13.90;;;;;;;9.06;96.21;98373.96;1715922;82;20991;-65
2021/11/29 03:09:43;;;;;;;21.00;15.47;;;;;;;8.63;96.15;98303.77;1704791;82;21058;-66
2021/11/29 03:12:11;;;;;;;18.13;11.93;;;;;;;9.08;96.12;98372.38;1712255;81;21037;-67
2021/11/29 03:14:38;;;;;;;19.80;11.83;;;;;;;9.09;96.13;98372.69;1730543;81;20967;-65
2021/11/29 03:17:05;;;;;;;15.77;11.03;;;;;;;9.09;96.18;98364.19;1733202;82;21021;-73
2021/11/29 03:19:36;;;;;;;21.97;13.00;;;;;;;9.12;95.94;98367.73;1726518;82;21028;-67
2021/11/29 03:22:07;;;;;;;15.17;12.27;;;;;;;9.10;95.87;98349.08;1721054;81;21082;-68
2021/11/29 03:24:35;;;;;;;13.47;12.03;;;;;;;9.12;95.71;98350.98;1720485;82;21041;-67
2021/11/29 03:27:02;;;;;;;11.43;10.20;;;;;;;9.07;95.72;98346.33;1726674;82;21469;-67
2021/11/29 03:29:29;;;;;;;14.17;11.70;;;;;;;9.04;95.79;98345.48;1734651;82;21011;-67
2021/11/29 03:32:02;;;;;;;13.50;11.47;;;;;;;9.01;95.96;98343.79;1727795;81;21038;-67
2021/11/29 03:34:29;;;;;;;16.37;12.17;;;;;;;8.98;95.98;98332.28;1727886;82;21074;-70
2021/11/29 03:36:58;;;;;;;17.03;12.33;;;;;;;8.99;95.99;98347.20;1722469;82;20979;-67
2021/11/29 03:39:28;;;;;;;14.43;11.60;;;;;;;9.00;95.87;98312.40;1728740;82;21046;-69
2021/11/29 03:41:58;;;;;;;20.83;13.53;;;;;;;8.99;95.89;98298.03;1716870;81;21093;-68
2021/11/29 03:44:25;;;;;;;32.17;16.40;;;;;;;8.98;95.91;98315.80;1726551;82;21029;-66
2021/11/29 03:46:52;;;;;;;;;;;;;;;8.87;95.81;98286.86;1729980;82;21023;-67
2021/11/29 03:49:19;;;;;;;27.70;15.87;;;;;;;9.03;95.62;98325.24;1725383;82;20478;-68
2021/11/29 03:51:46;;;;;;;33.70;15.17;;;;;;;8.99;95.72;98305.48;1727463;81;21494;-66
2021/11/29 03:54:12;;;;;;;20.23;12.80;;;;;;;8.98;95.81;98315.00;1723398;81;21050;-66
2021/11/29 03:56:39;;;;;;;;;;;;;;;8.97;95.72;98308.89;1731199;82;21002;-68
2021/11/29 03:59:06;;;;;;;17.67;12.93;;;;;;;8.96;95.78;98295.30;1711737;82;20107;-69
2021/11/29 04:01:33;;;;;;;21.13;12.83;;;;;;;8.90;95.94;98297.02;1698349;83;21067;-66
2021/11/29 04:04:03;;;;;;;22.30;14.63;;;;;;;8.92;95.85;98292.81;1676548;83;21111;-67
2021/11/29 04:06:30;;;;;;;23.03;13.67;;;;;;;8.95;95.80;98289.70;1710996;82;21015;-65
2021/11/29 04:08:59;;;;;;;25.20;14.77;;;;;;;8.95;95.72;98286.52;1691938;82;21592;-66
2021/11/29 04:11:25;;;;;;;20.67;13.30;;;;;;;8.93;95.81;98288.60;1707655;82;21007;-65
2021/11/29 04:13:52;;;;;;;17.92;12.80;;;;;;;8.98;95.63;98281.27;1695208;82;20993;-68
2021/11/29 04:16:19;;;;;;;15.53;12.97;;;;;;;9.00;95.48;98286.35;1719499;81;21624;-65
2021/11/29 04:18:46;;;;;;;16.67;12.15;;;;;;;8.99;95.41;98274.92;1715791;82;21089;-65
2021/11/29 04:21:14;;;;;;;15.47;12.33;;;;;;;8.97;95.46;98280.98;1725320;82;20977;-66
2021/11/29 04:23:44;;;;;;;13.87;12.47;;;;;;;9.01;95.33;98262.22;1685849;83;21031;-67
2021/11/29 04:26:15;;;;;;;22.43;15.37;;;;;;;9.03;95.26;98265.98;1680868;84;21074;-67
2021/11/29 04:28:41;;;;;;;16.87;13.27;;;;;;;9.04;95.15;98260.44;1697893;83;21022;-67
2021/11/29 04:31:08;;;;;;;15.77;12.93;;;;;;;9.06;95.00;98254.38;1698888;83;21756;-67
2021/11/29 04:33:37;;;;;;;16.73;12.23;;;;;;;9.12;94.81;98244.14;1696701;83;21544;-71
2021/11/29 04:36:04;;;;;;;15.57;12.27;;;;;;;9.10;94.67;98262.17;1696817;83;21101;-65
2021/11/29 04:38:32;;;;;;;18.23;13.93;;;;;;;9.10;94.54;98255.53;1694661;84;21010;-66
2021/11/29 04:41:00;;;;;;;13.27;11.93;;;;;;;9.10;94.45;98247.55;1695141;83;21091;-66
2021/11/29 04:43:26;;;;;;;17.37;12.60;;;;;;;9.16;94.38;98245.83;1647302;85;21052;-71
2021/11/29 04:45:53;;;;;;;14.90;13.38;;;;;;;9.15;94.34;98254.83;1663708;85;21036;-67
2021/11/29 04:48:19;;;;;;;;;;;;;;;9.15;94.21;98249.02;1701731;83;21033;-69
2021/11/29 04:50:47;;;;;;;15.83;12.23;;;;;;;9.10;94.39;98242.23;1667060;84;20162;-69
2021/11/29 04:53:14;;;;;;;13.67;11.90;;;;;;;9.06;94.45;98245.07;1665500;84;21518;-66
2021/11/29 04:55:40;;;;;;;14.27;12.77;;;;;;;9.07;94.55;98244.55;1665979;83;20986;-67
2021/11/29 04:58:07;;;;;;;15.33;11.80;;;;;;;9.07;94.63;98246.67;1708890;83;21034;-67
2021/11/29 05:00:34;;;;;;;13.17;11.77;;;;;;;9.07;94.57;98232.06;1694421;83;21107;-65
2021/11/29 05:03:00;;;;;;;;;;;;;;;9.06;94.55;98242.91;1697714;83;21077;-66
2021/11/29 05:05:27;;;;;;;13.37;11.50;;;;;;;9.08;94.46;98232.36;1695537;83;20164;-66
2021/11/29 05:07:54;;;;;;;14.27;12.87;;;;;;;9.05;94.60;98234.14;1694344;83;21056;-67
2021/11/29 05:10:20;;;;;;;14.63;13.18;;;;;;;9.02;94.67;98234.59;1692351;83;21036;-67
2021/11/29 05:12:47;;;;;;;17.02;13.13;;;;;;;9.02;94.59;98234.59;1705881;82;21038;-66
2021/11/29 05:15:13;;;;;;;13.23;11.93;;;;;;;9.02;94.66;98237.24;1696439;83;21067;-65
2021/11/29 05:17:41;;;;;;;13.27;11.90;;;;;;;9.04;94.60;98229.05;1697985;83;21061;-67
2021/11/29 05:20:09;;;;;;;13.98;12.53;;;;;;;9.08;94.40;98216.91;1695178;83;21065;-68
2021/11/29 05:22:35;;;;;;;14.13;12.73;;;;;;;9.03;94.57;98222.12;1698295;83;21055;-67
2021/11/29 05:25:02;;;;;;;;;;;;;;;9.07;94.37;98213.45;1708680;82;21082;-66
2021/11/29 05:27:28;;;;;;;13.93;12.53;;;;;;;9.09;94.34;98210.05;1690366;83;20186;-68
2021/11/29 05:29:55;;;;;;;;;;;;;;;9.08;94.34;98200.97;1690950;83;21058;-67
2021/11/29 05:32:24;;;;;;;17.27;13.58;;;;;;;9.11;94.23;98203.17;1692408;83;20150;-72
2021/11/29 05:34:51;;;;;;;14.43;12.83;;;;;;;9.11;94.40;98199.98;1711266;83;21581;-72
2021/11/29 05:37:22;;;;;;;15.03;12.50;;;;;;;9.12;94.22;98217.56;1701791;83;21093;-66
2021/11/29 05:39:49;;;;;;;14.53;12.80;;;;;;;9.14;94.08;98210.70;1701207;83;21510;-68
2021/11/29 05:42:16;;;;;;;14.23;12.93;;;;;;;9.18;93.90;98207.86;1704611;83;21023;-66
2021/11/29 05:44:43;;;;;;;14.27;12.70;;;;;;;9.22;93.74;98202.36;1677669;84;21134;-66
2021/11/29 05:47:10;;;;;;;13.90;12.50;;;;;;;9.24;93.62;98204.80;1700492;83;21391;-67
2021/11/29 05:49:36;;;;;;;18.03;12.13;;;;;;;9.27;93.53;98214.98;1707279;83;21017;-66
2021/11/29 05:52:04;;;;;;;14.87;13.38;;;;;;;9.24;93.42;98213.58;1697937;83;21153;-70
2021/11/29 05:54:31;;;;;;;13.87;12.50;;;;;;;9.24;93.36;98220.75;1697172;83;21025;-67
2021/11/29 05:56:57;;;;;;;;;;;;;;;9.24;93.34;98228.72;1706232;83;21565;-69
2021/11/29 05:59:24;;;;;;;17.93;13.07;;;;;;;9.19;93.48;98224.08;1707606;82;20401;-66
2021/11/29 06:01:50;;;;;;;18.17;15.95;;;;;;;9.11;93.75;98211.95;1695858;83;21040;-66
2021/11/29 06:04:17;;;;;;;16.00;14.20;;;;;;;9.06;94.00;98204.38;1688474;83;21042;-67
2021/11/29 06:06:44;;;;;;;20.57;16.17;;;;;;;9.14;93.72;98202.20;1695010;83;21543;-68
2021/11/29 06:09:11;;;;;;;16.87;15.07;;;;;;;9.13;93.73;98205.88;1697650;83;21105;-68
2021/11/29 06:11:38;;;;;;;20.23;17.47;;;;;;;9.18;93.64;98203.08;1669866;84;21547;-67
2021/11/29 06:14:05;;;;;;;18.53;16.67;;;;;;;9.15;93.58;98199.01;1688236;83;21640;-69
2021/11/29 06:16:32;;;;;;;21.47;17.87;;;;;;;9.20;93.48;98193.81;1692584;83;21058;-67
2021/11/29 06:19:00;;;;;;;26.27;20.10;;;;;;;9.25;93.17;98189.12;1677480;84;21053;-68
2021/11/29 06:21:27;;;;;;;;;;;;;;;9.23;93.12;98176.58;1685058;83;21031;-68
2021/11/29 06:23:54;;;;;;;24.23;21.67;;;;;;;9.22;93.05;98185.09;1647953;85;20125;-69
2021/11/29 06:26:21;;;;;;;22.65;19.40;;;;;;;9.20;93.14;98181.86;1669410;84;21368;-69
2021/11/29 06:28:50;;;;;;;26.93;23.83;;;;;;;9.21;93.14;98194.62;1668102;84;21109;-69
2021/11/29 06:31:19;;;;;;;24.67;22.07;;;;;;;9.21;93.08;98191.46;1689340;84;21118;-71
2021/11/29 06:33:48;;;;;;;23.07;20.67;;;;;;;9.23;93.04;98196.02;1691816;83;21006;-68
2021/11/29 06:36:15;;;;;;;24.73;20.80;;;;;;;9.28;92.90;98200.63;1694631;84;21618;-68
2021/11/29 06:38:42;;;;;;;28.10;22.80;;;;;;;9.28;92.88;98199.30;1679882;85;21063;-69
2021/11/29 06:44:16;;;;;;;29.47;26.37;;;;;;;9.37;92.66;98175.31;1785832;78;22880;-68
2021/11/29 06:46:44;;;;;;;27.93;24.70;;;;;;;9.30;92.70;98172.77;1704730;83;21020;-68
2021/11/29 06:49:10;;;;;;;26.90;24.03;;;;;;;9.33;92.57;98171.50;1720969;82;21024;-69
2021/11/29 06:51:37;;;;;;;25.40;22.70;;;;;;;9.33;92.54;98160.88;1702590;83;21488;-68
2021/11/29 06:54:04;;;;;;;24.23;21.60;;;;;;;9.39;92.41;98155.94;1702052;83;21429;-68
2021/11/29 06:56:31;;;;;;;22.23;19.73;;;;;;;9.40;92.28;98150.92;1698903;82;21008;-69
2021/11/29 06:58:57;;;;;;;19.53;15.73;;;;;;;9.43;92.17;98142.98;1703779;83;21537;-67
2021/11/29 07:01:24;;;;;;;;;;;;;;;9.41;92.11;98149.87;1702956;83;21033;-69
2021/11/29 07:03:52;;;;;;;20.13;17.53;;;;;;;9.44;92.10;98139.30;1703448;83;20262;-71
2021/11/29 07:06:19;;;;;;;22.50;18.83;;;;;;;9.40;92.22;98130.16;1704181;83;21043;-70
2021/11/29 07:08:45;;;;;;;21.93;17.90;;;;;;;9.43;92.17;98125.17;1702715;83;21428;-67
2021/11/29 07:11:12;;;;;;;20.97;18.33;;;;;;;9.43;92.16;98115.87;1702963;83;21564;-69
2021/11/29 07:13:39;;;;;;;19.87;17.70;;;;;;;9.44;92.04;98097.55;1704994;83;21519;-68
2021/11/29 07:16:06;;;;;;;21.97;19.60;;;;;;;9.48;92.00;98094.70;1701823;83;21052;-70
2021/11/29 07:18:32;;;;;;;;;;;;;;;9.48;91.96;98099.22;1678405;84;21073;-69
2021/11/29 07:20:59;;;;;;;18.63;16.63;;;;;;;9.54;91.88;98097.74;1703492;83;20215;-67
2021/11/29 07:23:25;;;;;;;;;;;;;;;9.54;91.91;98087.63;1705349;82;21002;-68
2021/11/29 07:25:52;;;;;;;20.70;18.13;;;;;;;9.61;91.78;98083.52;1713138;82;20109;-73
2021/11/29 07:28:19;;;;;;;18.77;16.87;;;;;;;9.57;91.78;98079.70;1708994;82;21138;-71
2021/11/29 07:30:47;;;;;;;18.20;16.23;;;;;;;9.61;91.68;98089.64;1691551;83;21053;-69
2021/11/29 07:33:13;;;;;;;19.63;17.57;;;;;;;9.66;91.60;98079.60;1705476;82;21119;-70
2021/11/29 07:35:41;;;;;;;;;;;;;;;9.70;91.49;98072.76;1687732;84;21049;-69
2021/11/29 07:38:08;;;;;;;20.30;17.37;;;;;;;9.73;91.40;98062.98;1692867;84;20560;-71
2021/11/29 07:40:34;;;;;;;22.42;18.25;;;;;;;9.75;91.51;98063.55;1696359;83;21045;-71
2021/11/29 07:43:06;;;;;;;20.33;15.73;;;;;;;9.80;91.32;98059.66;1688839;84;21124;-70
2021/11/29 07:45:34;;;;;;;19.17;16.20;;;;;;;9.87;91.16;98057.66;1702058;83;21017;-68
2021/11/29 07:48:03;;;;;;;18.80;16.57;;;;;;;9.88;90.89;98044.63;1697700;83;21042;-68
2021/11/29 07:50:31;;;;;;;19.37;17.27;;;;;;;9.91;90.78;98057.46;1698931;83;21050;-69
2021/11/29 07:52:59;;;;;;;19.50;17.43;;;;;;;9.91;90.85;98059.33;1698750;83;21057;-69
2021/11/29 07:55:29;;;;;;;19.27;17.20;;;;;;;9.98;90.74;98055.16;1698554;83;21021;-70
2021/11/29 07:57:58;;;;;;;20.07;17.93;;;;;;;10.03;90.67;98051.27;1696342;83;21033;-72
2021/11/29 08:00:29;;;;;;;19.93;17.17;;;;;;;10.07;90.49;98051.86;1697162;83;21097;-73
2021/11/29 08:03:00;;;;;;;18.47;15.53;;;;;;;10.11;90.46;98045.03;1728738;81;21061;-74
2021/11/29 08:05:28;;;;;;;20.30;15.80;;;;;;;10.16;89.99;98047.48;1729134;81;20984;-76
2021/11/29 08:07:56;;;;;;;18.07;16.20;;;;;;;10.15;89.99;98057.31;1729727;81;21016;-73
2021/11/29 08:10:25;;;;;;;18.03;14.67;;;;;;;10.14;90.08;98051.19;1705712;82;20960;-79
2021/11/29 08:12:52;;;;;;;20.73;15.37;;;;;;;10.16;90.22;98042.16;1706991;81;20989;-71
2021/11/29 08:15:20;;;;;;;19.57;15.47;;;;;;;10.16;90.34;98028.86;1701997;83;21017;-76
2021/11/29 08:17:47;;;;;;;21.37;17.17;;;;;;;10.15;90.50;98025.36;1701986;83;21009;-74
2021/11/29 08:20:18;;;;;;;20.10;17.40;;;;;;;10.09;91.06;98025.01;1706222;83;21045;-72
2021/11/29 08:22:47;;;;;;;21.00;16.73;;;;;;;9.79;91.09;97958.80;1701415;82;21103;-73
2021/11/29 08:25:14;;;;;;;21.17;16.30;;;;;;;10.09;91.54;98009.04;1703150;83;21013;-75
2021/11/29 08:27:41;;;;;;;17.97;15.80;;;;;;;10.10;91.69;97994.69;1698064;83;21139;-72
2021/11/29 08:30:10;;;;;;;;;;;;;;;10.10;91.76;97992.03;1698753;83;20962;-75
2021/11/29 08:32:38;;;;;;;20.83;16.40;;;;;;;10.12;91.71;97989.40;1707197;83;20113;-72
2021/11/29 08:35:06;;;;;;;20.80;17.13;;;;;;;10.07;91.98;97986.65;1667834;82;21064;-72
2021/11/29 08:37:33;;;;;;;22.93;18.83;;;;;;;10.06;92.29;97982.92;1666319;85;21048;-72
2021/11/29 08:40:00;;;;;;;29.48;20.97;;;;;;;10.04;92.42;97969.86;1672917;85;21006;-74
2021/11/29 08:42:26;;;;;;;28.77;22.43;;;;;;;10.11;92.35;97961.69;1670528;85;21077;-74
2021/11/29 08:44:52;;;;;;;;;;;;;;;10.16;92.23;97945.80;1669115;84;21038;-76
2021/11/29 08:47:19;;;;;;;28.07;22.03;;;;;;;10.21;92.03;97945.88;1667079;85;20168;-74
2021/11/29 08:49:45;;;;;;;47.57;26.63;;;;;;;10.19;92.10;97937.34;1666190;85;20990;-72
2021/11/29 08:52:12;;;;;;;51.00;28.70;;;;;;;10.21;92.10;97930.41;1663852;85;21049;-73
2021/11/29 08:54:40;;;;;;;46.97;27.10;;;;;;;10.23;92.18;97918.48;1661993;85;21034;-75
2021/11/29 08:57:09;;;;;;;73.27;32.07;;;;;;;10.23;92.25;97915.03;1662818;84;21007;-83
2021/11/29 08:59:36;;;;;;;47.67;26.23;;;;;;;10.24;92.42;97900.65;1659187;85;21080;-72
2021/11/29 09:02:03;;;;;;;63.77;29.80;;;;;;;10.26;92.58;97898.02;1708090;82;21055;-77
2021/11/29 09:04:30;;;;;;;49.10;27.17;;;;;;;10.29;92.56;97886.88;1683705;84;21494;-72
2021/11/29 09:06:57;;;;;;;61.73;30.27;;;;;;;10.30;92.49;97883.21;1655977;85;21451;-74
2021/11/29 09:09:24;;;;;;;61.43;32.47;;;;;;;10.31;92.54;97898.12;1660208;85;21497;-74
2021/11/29 09:11:52;;;;;;;60.27;31.60;;;;;;;10.22;93.03;97876.93;1655377;85;21033;-72
2021/11/29 09:14:19;;;;;;;68.17;32.17;;;;;;;10.11;93.59;97867.20;1613296;86;21100;-74
2021/11/29 09:16:48;;;;;;;88.97;36.30;;;;;;;10.04;94.27;97863.90;1637683;86;21600;-74
2021/11/29 09:19:14;;;;;;;51.13;28.75;;;;;;;10.01;94.50;97859.88;1582066;89;21558;-77
2021/11/29 09:21:41;;;;;;;;;;;;;;;9.98;95.13;97853.70;1579671;89;21099;-74
2021/11/29 09:24:07;;;;;;;32.40;21.87;;;;;;;9.94;95.43;97850.77;1605103;86;20458;-75
2021/11/29 09:26:35;;;;;;;27.83;19.17;;;;;;;9.86;95.98;97843.17;1631414;86;21137;-72
2021/11/29 09:29:02;;;;;;;26.43;21.63;;;;;;;9.85;96.20;97846.08;1640383;86;21052;-72
2021/11/29 09:31:28;;;;;;;24.97;18.23;;;;;;;9.85;96.34;97832.27;1633782;86;21079;-79
2021/11/29 09:33:57;;;;;;;25.83;19.23;;;;;;;9.86;96.50;97821.89;1654400;85;21513;-73
2021/11/29 09:36:23;;;;;;;28.80;21.53;;;;;;;9.86;96.70;97827.21;1648805;85;21030;-73
2021/11/29 09:38:51;;;;;;;;;;;;;;;9.89;96.74;97808.64;1654224;85;21147;-72
2021/11/29 09:41:21;;;;;;;;;;;;;;;9.91;96.62;97806.53;1659473;85;20144;-76
2021/11/29 09:43:48;;;;;;;27.43;16.90;;;;;;;9.88;96.75;97794.52;1655218;85;20216;-73
2021/11/29 09:46:14;;;;;;;24.13;19.50;;;;;;;9.84;97.19;97801.91;1670788;83;21031;-76
2021/11/29 09:48:40;;;;;;;;;;;;;;;9.89;97.08;97793.47;1679013;85;21055;-75
2021/11/29 09:51:10;;;;;;;25.40;22.57;;;;;;;9.92;96.93;97780.98;1681628;83;20131;-72
2021/11/29 09:53:38;;;;;;;25.77;23.03;;;;;;;9.97;96.77;97774.15;1683599;83;21073;-72
2021/11/29 09:56:05;;;;;;;23.60;20.00;;;;;;;10.04;96.71;97765.42;1665327;85;21336;-73
2021/11/29 09:58:32;;;;;;;25.00;20.23;;;;;;;10.07;96.43;97755.09;1634194;86;21042;-72
2021/11/29 10:01:03;;;;;;;22.23;18.83;;;;;;;10.13;96.20;97739.48;1640865;85;21010;-73
2021/11/29 10:03:30;;;;;;;21.73;18.67;;;;;;;10.23;95.96;97735.33;1614153;87;21026;-83
2021/11/29 10:05:58;;;;;;;23.70;18.60;;;;;;;10.31;95.93;97722.39;1607772;87;21708;-72
2021/11/29 10:08:30;;;;;;;26.67;20.07;;;;;;;10.44;95.73;97715.87;1635260;86;21273;-76
2021/11/29 10:11:05;;;;;;;26.10;19.27;;;;;;;10.49;94.53;97716.43;1631227;88;21011;-75
2021/11/29 10:13:29;;;;;;;27.63;20.77;;;;;;;10.51;94.14;97689.84;1631406;86;21012;-72
2021/11/29 10:15:56;;;;;;;26.75;19.52;;;;;;;10.55;94.00;97692.80;1631492;86;21047;-73
2021/11/29 10:18:26;;;;;;;30.20;22.10;;;;;;;10.60;93.83;97692.83;1638677;86;21038;-77
2021/11/29 10:21:06;;;;;;;31.07;19.93;;;;;;;10.64;93.71;97696.62;1635882;86;21008;-75
2021/11/29 10:23:44;;;;;;;26.93;22.17;;;;;;;10.67;93.32;97701.42;1643785;84;21086;-71
2021/11/29 10:26:28;;;;;;;22.77;19.30;;;;;;;10.67;93.19;97700.63;1672825;86;21081;-75
2021/11/29 10:29:03;;;;;;;24.57;21.40;;;;;;;10.65;93.28;97708.86;1669197;86;21618;-74
2021/11/29 10:31:46;;;;;;;29.37;16.90;;;;;;;10.66;93.31;97703.83;1672419;84;21027;-73
2021/11/29 10:34:17;;;;;;;26.43;19.03;;;;;;;10.66;93.29;97702.49;1675936;84;21039;-75
2021/11/29 10:36:57;;;;;;;25.37;18.17;;;;;;;10.69;93.25;97683.32;1678486;84;21026;-72
2021/11/29 10:39:33;;;;;;;22.30;17.87;;;;;;;10.70;93.20;97676.15;1680361;84;21022;-74
2021/11/29 10:42:05;;;;;;;18.50;16.53;;;;;;;10.65;93.31;97671.56;1664865;85;20995;-73
2021/11/29 10:44:36;;;;;;;18.13;16.00;;;;;;;10.66;93.24;97662.53;1685422;83;21127;-73
2021/11/29 10:47:08;;;;;;;19.73;17.27;;;;;;;10.73;93.03;97656.18;1643606;85;21074;-74
2021/11/29 10:49:41;;;;;;;18.23;16.27;;;;;;;10.80;92.81;97652.77;1669280;85;21041;-70
2021/11/29 10:52:10;;;;;;;18.37;16.10;;;;;;;10.80;92.75;97647.45;1658697;85;21033;-80
2021/11/29 10:54:40;;;;;;;19.98;17.52;;;;;;;10.79;92.82;97640.50;1659610;85;21112;-72
2021/11/29 10:57:12;;;;;;;22.63;18.10;;;;;;;10.76;92.80;97641.03;1697167;83;21089;-74
2021/11/29 10:59:44;;;;;;;19.80;17.70;;;;;;;10.79;92.76;97639.95;1708420;83;21056;-74
2021/11/29 11:02:24;;;;;;;20.97;17.80;;;;;;;10.80;92.72;97632.79;1712976;82;21043;-73
2021/11/29 11:05:07;;;;;;;20.83;18.63;;;;;;;10.77;92.83;97635.42;1705914;83;21077;-75
2021/11/29 11:07:37;;;;;;;21.10;17.43;;;;;;;10.76;92.89;97628.50;1719775;82;21026;-75
2021/11/29 11:10:11;;;;;;;21.97;17.33;;;;;;;10.76;92.96;97621.05;1726728;82;21073;-71
2021/11/29 11:12:40;;;;;;;21.02;17.87;;;;;;;10.79;92.98;97625.84;1727789;82;21041;-75
2021/11/29 11:15:15;;;;;;;18.55;16.50;;;;;;;10.79;92.92;97617.31;1729991;82;21016;-75
2021/11/29 11:17:42;;;;;;;22.50;18.87;;;;;;;10.83;92.88;97614.94;1708135;82;21062;-79
2021/11/29 11:20:13;;;;;;;21.07;18.87;;;;;;;10.85;92.77;97605.65;1727052;82;21645;-72
2021/11/29 11:22:45;;;;;;;21.15;18.90;;;;;;;10.93;92.59;97599.57;1730001;82;21108;-73
2021/11/29 11:25:19;;;;;;;21.57;19.27;;;;;;;10.97;92.29;97600.12;1709550;83;21066;-74
2021/11/29 11:28:00;;;;;;;18.50;16.55;;;;;;;10.99;92.01;97595.87;1707292;82;21000;-72
2021/11/29 11:30:30;;;;;;;21.00;18.67;;;;;;;11.02;92.07;97584.67;1715722;82;21055;-68
2021/11/29 11:33:06;;;;;;;21.12;17.40;;;;;;;11.06;91.88;97569.25;1710429;82;20964;-68
2021/11/29 11:35:38;;;;;;;23.62;19.05;;;;;;;11.10;91.73;97567.67;1731510;82;21060;-71
2021/11/29 11:38:21;;;;;;;19.73;17.63;;;;;;;11.15;91.56;97562.91;1733077;82;21002;-69